Terminal Aerodrome Forecast
Issued by NWS Buffalo, NY

Home | Current Version | Previous Version | Text Only | Print | Product List | Glossary On
Versions: 1 2 3 4 5 6 7 8 9 10 11 12 13 14 15 16 17 18 19 20 21 22 23 24 25
455
FTUS41 KBUF 281120
TAFROC
TAF
KROC 281120Z 2812/2912 VRB03KT P6SM BKN070
     FM281600 33005KT P6SM BKN080
     FM282100 03008KT P6SM BKN150
     FM290100 VRB03KT P6SM BKN120
     FM290900 03005KT P6SM BKN070=

USA.gov is the U.S. government's official web portal to all federal, state and local government web resources and services.